Detalii statie Girov TCE 3 BRAZI [000011A2]

Toti senzorii

Date Temperatura solului [C]Precipitatii [mm]Voltaj baterie [mV]Leaf Wetness [Min]HC Air temperature [C]HC Relative humidity [%]Punctul de roua [C]
medieminmaxsumaultimatimpmedieminmaxmediemediemin
2020-06-04 07:00:00 0 6600 0 6.86 5.75 7.44 100 6.8 5.7
2020-06-04 08:00:00 0 6708 0 9.64 7.65 11.79 100 9.6 7.6
2020-06-04 09:00:00 0 7000 0 14.7 12.29 16.4 100 14.6 12.2
2020-06-04 10:00:00 0 6992 0 16.01 15.25 16.92 100 15.9 15.2
2020-06-04 11:00:00 0 7000 0 17.21 16.47 18.13 100 17.1 16.4
2020-06-04 12:00:00 0 6992 0 20.05 18.34 21.53 100 20 18.3
2020-06-04 13:00:00 0 6992 0 21.85 20.82 22.82 100 21.8 20.8
2020-06-04 14:00:00 0 6992 0 22.78 21.25 23.81 100 22.7 21.2
2020-06-04 15:00:00 0 6992 0 23.46 21.91 24.91 100 23.4 21.9
2020-06-04 16:00:00 0 6992 0 24.05 22.37 25.64 100 24 22.3
2020-06-04 17:00:00 0 6992 0 24.5 23.76 25.49 100 24.4 23.7
2020-06-04 18:00:00 0 6894 0 23.18 22.43 24.5 100 23.1 22.4
2020-06-04 19:00:00 0 6816 0 21.64 19 22.52 100 21.5 19
2020-06-04 20:00:00 0 6786 0 18.16 17.7 18.61 100 18.1 17.7
2020-06-04 21:00:00 0 6688 0 17.43 16.38 18.43 100 17.3 16.3
2020-06-04 22:00:00 0 6610 0 15.89 15.28 16.38 100 15.8 15.2
2020-06-04 23:00:00 0 6572 0 15.02 14.39 16 100 14.9 14.3
2020-06-05 00:00:00 0 6572 0 14.42 13.32 15.96 100 14.3 13.3
2020-06-05 01:00:00 0 6542 0 12.8 11.87 13.94 100 12.7 11.8
2020-06-05 02:00:00 0 6552 0 14.38 12.94 14.94 100 14.3 12.9
2020-06-05 03:00:00 0 6542 0 12.41 12.16 13.24 100 12.3 12.1
2020-06-05 04:00:00 0 6532 0 12.11 11.9 12.52 100 12 11.9
2020-06-05 05:00:00 0 6522 0 12.01 11.38 12.7 100 11.9 11.3
2020-06-05 06:00:00 0 6522 0 12.25 11.88 12.89 100 12.1 11.8
2020-06-05 07:00:00 0 6590 0 13.39 12.8 14.35 100 13.3 12.8
2020-06-05 08:00:00 0 6766 0 15.77 14.56 16.95 100 15.7 14.5
2020-06-05 09:00:00 0 6786 0 16.24 16.1 16.51 100 16.2 16.1
2020-06-05 10:00:00 0 6914 0 16.77 16.16 18.01 100 16.7 16.1
2020-06-05 11:00:00 0 6992 0 18.78 18.43 19.7 100 18.7 18.4
2020-06-05 12:00:00 0 6992 0 20.8 19.97 22.43 100 20.7 19.9
2020-06-05 13:00:00 0 6992 0 22.45 21.71 23.2 100 22.4 21.7
2020-06-05 14:00:00 0 6992 0 25.17 23.57 26.2 100 25.1 23.5
2020-06-05 15:00:00 0 6992 0 25.47 24.45 26.17 100 25.4 24.4
2020-06-05 16:00:00 0 6982 0 25.57 25 25.97 100 25.5 25
2020-06-05 17:00:00 0 6982 0 25.74 25.48 26.07 100 25.7 25.4
2020-06-05 18:00:00 0 6982 0 25.74 25.35 26.52 100 25.7 25.3
2020-06-05 19:00:00 0 6806 0 26.34 26.07 26.88 100 26.2 26
2020-06-05 20:00:00 0 6748 0 25.19 24.11 26.09 100 25.1 24.1
2020-06-05 21:00:00 0 6650 0 22.68 21.33 23.84 100 22.6 21.3
2020-06-05 22:00:00 0 6582 0 19.17 18.06 20.98 100 19.1 18
2020-06-05 23:00:00 0 6582 0 15.59 14.18 17.93 100 15.5 14.1
2020-06-06 00:00:00 0 6562 0 13.03 12.4 13.9 100 13 12.4
2020-06-06 01:00:00 0 6552 0 14.45 12.59 15.9 100 14.4 12.5
2020-06-06 02:00:00 0 6552 0 14.2 13.9 14.71 100 14.1 13.9
2020-06-06 03:00:00 0 6542 0 12.97 12.48 13.69 100 12.9 12.4
2020-06-06 04:00:00 0 6522 0 13.69 12.92 14.06 100 13.6 12.9
2020-06-06 05:00:00 0 6522 0 14.28 14.07 14.48 100 14.2 14
2020-06-06 06:00:00 0 6522 0 14.37 14.19 14.59 100 14.3 14.1